createdAt,value
2023-03-18T00:01:11.606Z,19.17
2023-03-18T00:03:40.028Z,18.05
2023-03-18T00:06:18.519Z,15.57
2023-03-18T00:08:47.944Z,16.25
2023-03-18T00:11:18.779Z,14.52
2023-03-18T00:13:46.708Z,13.07
2023-03-18T00:16:15.263Z,12.50
2023-03-18T00:18:43.321Z,12.95
2023-03-18T00:21:11.157Z,11.77
2023-03-18T00:23:39.637Z,12.80
2023-03-18T00:26:09.085Z,12.18
2023-03-18T00:28:38.759Z,11.63
2023-03-18T00:31:13.770Z,11.85
2023-03-18T00:33:46.026Z,12.00
2023-03-18T00:36:15.192Z,12.32
2023-03-18T00:38:46.107Z,11.30
2023-03-18T00:41:16.268Z,12.00
2023-03-18T00:43:52.449Z,12.80
2023-03-18T00:46:27.528Z,12.00
2023-03-18T00:49:00.124Z,12.15
2023-03-18T00:51:32.397Z,11.43
2023-03-18T00:54:06.710Z,11.65
2023-03-18T00:56:37.674Z,12.25
2023-03-18T00:59:07.584Z,11.57
2023-03-18T01:01:36.734Z,13.07
2023-03-18T01:04:04.963Z,12.60
2023-03-18T01:06:35.896Z,11.52
2023-03-18T01:09:07.028Z,12.82
2023-03-18T01:11:34.982Z,11.35
2023-03-18T01:14:03.712Z,10.90
2023-03-18T01:16:31.166Z,12.40
2023-03-18T01:18:59.944Z,10.32
2023-03-18T01:21:27.989Z,11.35
2023-03-18T01:23:55.684Z,13.38
2023-03-18T01:26:23.812Z,11.23
2023-03-18T01:28:51.795Z,12.88
2023-03-18T01:31:19.677Z,10.43
2023-03-18T01:33:47.936Z,13.90
2023-03-18T01:36:15.698Z,13.30
2023-03-18T01:38:43.648Z,11.75
2023-03-18T01:41:12.579Z,13.10
2023-03-18T01:43:42.968Z,13.18
2023-03-18T01:46:39.063Z,12.30
2023-03-18T01:49:41.212Z,11.43
2023-03-18T01:52:21.640Z,12.05
2023-03-18T01:55:08.634Z,12.82
2023-03-18T01:57:37.495Z,10.30
2023-03-18T02:00:07.009Z,12.85
2023-03-18T02:02:34.262Z,13.02
2023-03-18T02:05:06.561Z,10.63
2023-03-18T02:07:36.319Z,12.40
2023-03-18T02:10:30.102Z,11.63
2023-03-18T02:13:10.490Z,12.30
2023-03-18T02:15:57.076Z,12.00
2023-03-18T02:18:40.933Z,12.75
2023-03-18T02:21:56.592Z,11.90
2023-03-18T02:25:03.995Z,13.13
2023-03-18T02:27:40.258Z,12.10
2023-03-18T02:30:19.100Z,11.60
2023-03-18T02:32:49.599Z,12.45
2023-03-18T02:35:17.246Z,11.90
2023-03-18T02:37:44.789Z,12.07
2023-03-18T02:40:31.490Z,12.23
2023-03-18T02:43:19.224Z,13.18
2023-03-18T02:46:15.463Z,12.45
2023-03-18T02:48:46.243Z,12.98
2023-03-18T02:51:17.052Z,11.85
2023-03-18T02:53:44.692Z,13.88
2023-03-18T02:56:12.317Z,12.90
2023-03-18T02:58:41.205Z,14.07
2023-03-18T03:01:09.976Z,12.13
2023-03-18T03:03:38.832Z,12.48
2023-03-18T03:06:07.718Z,12.18
2023-03-18T03:08:35.338Z,10.98
2023-03-18T03:11:03.035Z,10.43
2023-03-18T03:13:30.870Z,10.93
2023-03-18T03:15:58.154Z,11.30
2023-03-18T03:18:26.739Z,10.88
2023-03-18T03:20:54.177Z,13.38
2023-03-18T03:23:21.887Z,11.20
2023-03-18T03:25:49.557Z,10.73
2023-03-18T03:28:17.348Z,11.68
2023-03-18T03:30:45.997Z,11.45
2023-03-18T03:33:13.906Z,11.98
2023-03-18T03:35:42.177Z,16.63
2023-03-18T03:38:10.710Z,14.52
2023-03-18T03:40:39.049Z,13.95
2023-03-18T03:43:07.059Z,14.80
2023-03-18T03:45:34.681Z,13.82
2023-03-18T03:48:02.245Z,14.07
2023-03-18T03:50:29.712Z,13.45
2023-03-18T03:52:58.376Z,13.27
2023-03-18T03:55:25.933Z,12.48
2023-03-18T03:57:53.488Z,15.43
2023-03-18T04:00:24.235Z,13.30
2023-03-18T04:02:54.276Z,12.70
2023-03-18T04:05:24.681Z,12.13
2023-03-18T04:07:54.265Z,15.13
2023-03-18T04:10:22.852Z,13.23
2023-03-18T04:12:51.098Z,14.15
2023-03-18T04:15:21.983Z,14.05
2023-03-18T04:17:50.960Z,13.85
2023-03-18T04:20:18.997Z,13.80
2023-03-18T04:22:47.055Z,12.65
2023-03-18T04:25:15.095Z,13.68
2023-03-18T04:27:43.828Z,12.65
2023-03-18T04:30:12.738Z,12.00
2023-03-18T04:32:40.443Z,11.68
2023-03-18T04:35:09.318Z,14.75
2023-03-18T04:37:37.587Z,13.13
2023-03-18T04:40:06.593Z,11.40
2023-03-18T04:42:34.328Z,13.23
2023-03-18T04:45:02.082Z,15.57
2023-03-18T04:47:29.583Z,17.20
2023-03-18T04:49:56.820Z,16.98
2023-03-18T04:52:24.687Z,15.23
2023-03-18T04:54:52.710Z,21.33
2023-03-18T04:57:20.536Z,18.58
2023-03-18T04:59:47.972Z,16.08
2023-03-18T05:02:15.683Z,18.65
2023-03-18T05:04:44.044Z,19.00
2023-03-18T05:07:16.618Z,18.15
2023-03-18T05:09:44.000Z,17.65
2023-03-18T05:12:16.169Z,18.63
2023-03-18T05:14:45.092Z,22.15
2023-03-18T05:17:17.154Z,20.50
2023-03-18T05:19:47.624Z,30.95
2023-03-18T05:22:19.021Z,24.40
2023-03-18T05:24:46.980Z,20.45
2023-03-18T05:27:18.598Z,20.27
2023-03-18T05:29:46.439Z,18.13
2023-03-18T05:32:14.936Z,17.92
2023-03-18T05:34:42.911Z,18.52
2023-03-18T05:37:14.054Z,18.98
2023-03-18T05:39:44.842Z,17.25
2023-03-18T05:42:14.249Z,16.58
2023-03-18T05:44:42.272Z,13.45
2023-03-18T05:47:10.760Z,13.63
2023-03-18T05:49:38.071Z,13.75
2023-03-18T05:52:06.419Z,12.82
2023-03-18T05:54:34.030Z,11.68
2023-03-18T05:57:01.639Z,15.57
2023-03-18T05:59:30.265Z,11.90
2023-03-18T06:01:58.040Z,12.57
2023-03-18T06:04:27.198Z,15.68
2023-03-18T06:06:55.385Z,12.35
2023-03-18T06:09:23.394Z,13.73
2023-03-18T06:11:51.020Z,11.20
2023-03-18T06:14:19.601Z,10.52
2023-03-18T06:16:47.228Z,13.35
2023-03-18T06:19:14.573Z,15.93
2023-03-18T06:21:42.292Z,14.05
2023-03-18T06:24:09.756Z,16.23
2023-03-18T06:26:37.401Z,11.77
2023-03-18T06:29:05.364Z,14.60
2023-03-18T06:31:34.235Z,14.93
2023-03-18T06:34:01.753Z,12.20
2023-03-18T06:36:29.285Z,12.63
2023-03-18T06:38:56.819Z,9.77
2023-03-18T06:41:24.379Z,10.30
2023-03-18T06:43:52.208Z,11.77
2023-03-18T06:46:20.031Z,12.30
2023-03-18T06:48:47.463Z,11.38
2023-03-18T06:51:14.995Z,13.65
2023-03-18T06:53:42.243Z,10.00
2023-03-18T06:56:10.101Z,8.85
2023-03-18T06:58:37.873Z,12.65
2023-03-18T07:01:05.679Z,13.35
2023-03-18T07:03:33.065Z,13.88
2023-03-18T07:06:01.313Z,14.77
2023-03-18T07:08:29.333Z,12.25
2023-03-18T07:10:57.806Z,12.23
2023-03-18T07:13:25.348Z,15.27
2023-03-18T07:15:56.560Z,13.18
2023-03-18T07:18:24.664Z,15.38
2023-03-18T07:20:52.638Z,13.65
2023-03-18T07:23:20.756Z,12.00
2023-03-18T07:25:48.370Z,11.02
2023-03-18T07:28:15.930Z,14.45
2023-03-18T07:30:43.455Z,13.52
2023-03-18T07:33:10.775Z,15.98
2023-03-18T07:35:41.137Z,12.82
2023-03-18T07:38:10.018Z,15.50
2023-03-18T07:40:38.066Z,12.55
2023-03-18T07:43:06.865Z,13.18
2023-03-18T07:45:35.078Z,12.50
2023-03-18T07:48:02.476Z,12.85
2023-03-18T07:50:30.006Z,12.75
2023-03-18T07:52:57.345Z,12.45
2023-03-18T07:55:25.472Z,11.80
2023-03-18T07:57:52.838Z,11.45
2023-03-18T08:00:21.079Z,11.43
2023-03-18T08:02:48.385Z,12.20
2023-03-18T08:05:16.217Z,12.13
2023-03-18T08:07:43.672Z,13.05
2023-03-18T08:10:12.648Z,12.52
2023-03-18T08:12:52.168Z,12.82
2023-03-18T08:15:22.364Z,12.63
2023-03-18T08:17:51.251Z,12.98
2023-03-18T08:20:20.274Z,13.13
2023-03-18T08:22:48.516Z,13.75
2023-03-18T08:25:17.256Z,12.48
2023-03-18T08:27:44.591Z,11.50
2023-03-18T08:30:13.821Z,15.30
2023-03-18T08:32:42.172Z,12.98
2023-03-18T08:35:11.742Z,12.45
2023-03-18T08:37:39.603Z,11.05
2023-03-18T08:40:09.955Z,12.27
2023-03-18T08:42:37.388Z,13.02
2023-03-18T08:45:05.622Z,13.00
2023-03-18T08:47:32.913Z,12.27
2023-03-18T08:50:00.499Z,12.63
2023-03-18T08:52:27.869Z,11.57
2023-03-18T08:54:55.532Z,12.27
2023-03-18T08:57:22.929Z,12.00
2023-03-18T08:59:51.191Z,11.40
2023-03-18T09:02:18.542Z,9.93
2023-03-18T09:04:48.318Z,10.60
2023-03-18T09:07:17.955Z,10.80
2023-03-18T09:09:46.753Z,10.65
2023-03-18T09:12:15.029Z,9.88
2023-03-18T09:14:44.101Z,9.60
2023-03-18T09:17:11.702Z,8.85
2023-03-18T09:19:39.688Z,9.77
2023-03-18T09:22:08.481Z,9.15
2023-03-18T09:24:36.293Z,10.10
2023-03-18T09:27:03.752Z,9.02
2023-03-18T09:29:32.072Z,9.48
2023-03-18T09:32:00.705Z,9.35
2023-03-18T09:34:28.412Z,10.23
2023-03-18T09:36:55.692Z,9.82
2023-03-18T09:39:23.336Z,10.93
2023-03-18T09:42:36.395Z,10.65
2023-03-18T09:45:39.056Z,9.32
2023-03-18T09:48:46.015Z,8.15
2023-03-18T09:51:53.927Z,8.90
2023-03-18T09:54:59.988Z,10.52
2023-03-18T09:57:36.950Z,10.07
2023-03-18T10:00:21.130Z,10.02
2023-03-18T10:02:59.138Z,10.57
2023-03-18T10:05:36.161Z,9.80
2023-03-18T10:08:52.985Z,9.93
2023-03-18T10:11:33.882Z,10.63
2023-03-18T10:14:27.603Z,10.18
2023-03-18T10:17:26.084Z,10.27
2023-03-18T10:19:59.486Z,8.93
2023-03-18T10:23:03.735Z,8.77
2023-03-18T10:25:51.683Z,8.65
2023-03-18T10:28:59.460Z,8.00
2023-03-18T10:31:57.308Z,7.28
2023-03-18T10:34:40.457Z,7.45
2023-03-18T10:37:41.205Z,9.05
2023-03-18T10:40:16.003Z,7.35
2023-03-18T10:42:45.638Z,6.25
2023-03-18T10:45:24.680Z,5.45
2023-03-18T10:48:12.825Z,5.45
2023-03-18T10:50:57.053Z,5.05
2023-03-18T10:53:51.844Z,4.85
2023-03-18T10:56:19.517Z,4.68
2023-03-18T10:58:47.149Z,5.63
2023-03-18T11:01:21.188Z,7.72
2023-03-18T11:03:54.691Z,4.70
2023-03-18T11:06:50.256Z,5.22
2023-03-18T11:09:22.491Z,6.15
2023-03-18T11:11:57.205Z,6.40
2023-03-18T11:14:31.761Z,5.70
2023-03-18T11:17:22.333Z,7.55
2023-03-18T11:20:08.316Z,9.70
2023-03-18T11:22:38.128Z,5.38
2023-03-18T11:25:14.048Z,4.65
2023-03-18T11:27:46.064Z,6.50
2023-03-18T11:30:34.994Z,5.35
2023-03-18T11:33:14.298Z,5.93
2023-03-18T11:35:55.200Z,5.82
2023-03-18T11:38:32.768Z,5.80
2023-03-18T11:41:26.080Z,6.22
2023-03-18T11:44:03.411Z,5.60
2023-03-18T11:46:46.086Z,6.20
2023-03-18T11:49:22.987Z,5.28
2023-03-18T11:51:59.450Z,6.85
2023-03-18T11:55:09.622Z,5.65
2023-03-18T11:58:08.925Z,7.45
2023-03-18T12:00:50.323Z,7.30
2023-03-18T12:04:23.491Z,5.80
2023-03-18T12:07:23.778Z,6.28
2023-03-18T12:09:57.073Z,5.72
2023-03-18T12:12:48.465Z,9.40
2023-03-18T12:15:40.634Z,11.18
2023-03-18T12:19:01.710Z,5.97
2023-03-18T12:21:56.363Z,5.15
2023-03-18T12:25:14.322Z,5.35
2023-03-18T12:28:22.045Z,4.93
2023-03-18T12:31:02.559Z,3.47
2023-03-18T12:34:01.575Z,4.80
2023-03-18T12:37:12.045Z,4.93
2023-03-18T12:40:08.023Z,4.95
2023-03-18T12:42:51.962Z,3.63
2023-03-18T12:45:23.843Z,3.80
2023-03-18T12:48:09.408Z,3.47
2023-03-18T12:50:54.727Z,3.97
2023-03-18T12:53:46.416Z,3.88
2023-03-18T12:56:21.629Z,3.83
2023-03-18T12:59:22.329Z,4.45
2023-03-18T13:02:18.644Z,4.47
2023-03-18T13:05:00.728Z,4.38
2023-03-18T13:07:44.354Z,3.90
2023-03-18T13:10:23.665Z,5.30
2023-03-18T13:13:01.024Z,5.88
2023-03-18T13:15:55.293Z,4.20
2023-03-18T13:18:39.855Z,3.63
2023-03-18T13:21:12.652Z,3.67
2023-03-18T13:24:24.108Z,5.07
2023-03-18T13:27:19.776Z,3.80
2023-03-18T13:30:30.078Z,3.90
2023-03-18T13:33:42.881Z,4.13
2023-03-18T13:36:43.761Z,3.50
2023-03-18T13:39:38.226Z,3.72
2023-03-18T13:42:11.558Z,4.03
2023-03-18T13:44:55.704Z,3.40
2023-03-18T13:47:28.689Z,4.47
2023-03-18T13:50:22.399Z,3.72
2023-03-18T13:52:55.250Z,3.58
2023-03-18T13:55:45.087Z,4.20
2023-03-18T13:58:23.605Z,4.13
2023-03-18T14:00:57.147Z,3.95
2023-03-18T14:03:43.182Z,4.82
2023-03-18T14:06:15.667Z,4.38
2023-03-18T14:08:43.305Z,3.97
2023-03-18T14:11:28.782Z,3.53
2023-03-18T14:14:02.251Z,4.57
2023-03-18T14:16:36.302Z,4.30
2023-03-18T14:19:20.892Z,4.68
2023-03-18T14:21:55.155Z,5.10
2023-03-18T14:24:26.759Z,4.15
2023-03-18T14:27:04.444Z,4.43
2023-03-18T14:29:47.318Z,4.90
2023-03-18T14:32:35.538Z,4.50
2023-03-18T14:35:18.561Z,4.22
2023-03-18T14:38:24.974Z,4.88
2023-03-18T14:40:57.562Z,5.43
2023-03-18T14:43:37.464Z,5.18
2023-03-18T14:46:17.741Z,4.32
2023-03-18T14:48:46.199Z,4.72
2023-03-18T14:51:21.179Z,4.20
2023-03-18T14:53:59.837Z,3.75
2023-03-18T14:56:38.578Z,5.07
2023-03-18T14:59:05.978Z,4.55
2023-03-18T15:01:40.540Z,3.70
2023-03-18T15:04:18.106Z,4.40
2023-03-18T15:06:46.481Z,3.72
2023-03-18T15:09:27.246Z,4.70
2023-03-18T15:11:55.249Z,4.22
2023-03-18T15:14:32.650Z,3.50
2023-03-18T15:17:05.130Z,4.50
2023-03-18T15:19:32.808Z,5.47
2023-03-18T15:22:07.157Z,5.75
2023-03-18T15:24:35.756Z,4.20
2023-03-18T15:27:14.784Z,4.40
2023-03-18T15:29:57.748Z,4.35
2023-03-18T15:32:27.335Z,4.53
2023-03-18T15:35:11.174Z,5.22
2023-03-18T15:37:45.386Z,4.03
2023-03-18T15:40:26.634Z,3.90
2023-03-18T15:43:12.020Z,3.65
2023-03-18T15:45:48.108Z,4.32
2023-03-18T15:48:40.798Z,3.85
2023-03-18T15:51:48.152Z,3.58
2023-03-18T15:54:28.106Z,3.60
2023-03-18T15:56:58.901Z,4.20
2023-03-18T15:59:31.246Z,3.70
2023-03-18T16:02:00.572Z,3.83
2023-03-18T16:04:35.445Z,3.80
2023-03-18T16:07:03.974Z,3.58
2023-03-18T16:09:34.459Z,3.88
2023-03-18T16:12:19.308Z,3.60
2023-03-18T16:14:51.054Z,4.10
2023-03-18T16:17:21.818Z,5.45
2023-03-18T16:19:55.806Z,7.30
2023-03-18T16:22:23.385Z,8.18
2023-03-18T16:24:51.126Z,7.57
2023-03-18T16:27:38.481Z,9.80
2023-03-18T16:30:16.410Z,11.00
2023-03-18T16:32:44.888Z,9.88
2023-03-18T16:35:18.067Z,9.73
2023-03-18T16:37:48.051Z,10.32
2023-03-18T16:40:22.168Z,8.65
2023-03-18T16:42:51.176Z,8.68
2023-03-18T16:45:25.388Z,10.27
2023-03-18T16:47:58.836Z,8.57
2023-03-18T16:50:34.993Z,8.48
2023-03-18T16:53:03.126Z,8.50
2023-03-18T16:55:31.472Z,8.77
2023-03-18T16:58:00.041Z,8.10
2023-03-18T17:00:32.955Z,8.43
2023-03-18T17:03:01.772Z,7.82
2023-03-18T17:05:29.629Z,9.43
2023-03-18T17:07:56.998Z,9.70
2023-03-18T17:10:27.170Z,10.25
2023-03-18T17:13:05.951Z,14.65
2023-03-18T17:15:38.289Z,17.23
2023-03-18T17:18:12.059Z,17.75
2023-03-18T17:20:41.445Z,15.02
2023-03-18T17:23:32.669Z,21.02
2023-03-18T17:26:03.038Z,25.33
2023-03-18T17:28:45.762Z,26.33
2023-03-18T17:31:14.159Z,23.85
2023-03-18T17:33:41.998Z,22.30
2023-03-18T17:36:10.319Z,21.65
2023-03-18T17:38:37.676Z,20.58
2023-03-18T17:41:14.828Z,19.10
2023-03-18T17:43:42.254Z,19.67
2023-03-18T17:46:09.881Z,18.17
2023-03-18T17:48:39.685Z,17.23
2023-03-18T17:51:27.540Z,17.00
2023-03-18T17:54:00.131Z,16.27
2023-03-18T17:56:28.884Z,17.02
2023-03-18T17:58:56.237Z,17.98
2023-03-18T18:01:27.437Z,18.30
2023-03-18T18:03:58.200Z,20.27
2023-03-18T18:06:32.109Z,17.55
2023-03-18T18:09:01.162Z,18.55
2023-03-18T18:11:38.027Z,21.23
2023-03-18T18:14:26.123Z,21.08
2023-03-18T18:16:59.601Z,20.10
2023-03-18T18:19:27.160Z,17.83
2023-03-18T18:21:54.968Z,18.17
2023-03-18T18:24:30.860Z,18.27
2023-03-18T18:26:58.471Z,19.27
2023-03-18T18:29:29.611Z,19.13
2023-03-18T18:31:57.486Z,20.75
2023-03-18T18:34:24.980Z,21.70
2023-03-18T18:36:52.886Z,21.63
2023-03-18T18:39:21.121Z,23.05
2023-03-18T18:41:48.931Z,24.15
2023-03-18T18:44:16.297Z,23.13
2023-03-18T18:46:43.869Z,24.55
2023-03-18T18:49:23.784Z,22.38
2023-03-18T18:51:54.834Z,21.10
2023-03-18T18:54:24.167Z,19.48
2023-03-18T18:56:53.112Z,18.13
2023-03-18T18:59:30.848Z,20.58
2023-03-18T19:02:00.754Z,23.45
2023-03-18T19:04:29.258Z,23.33
2023-03-18T19:06:56.921Z,25.05
2023-03-18T19:09:26.295Z,24.52
2023-03-18T19:11:56.435Z,25.90
2023-03-18T19:14:29.472Z,22.70
2023-03-18T19:16:59.857Z,21.95
2023-03-18T19:19:34.983Z,24.00
2023-03-18T19:22:03.664Z,23.60
2023-03-18T19:24:39.338Z,22.13
2023-03-18T19:27:20.112Z,21.27
2023-03-18T19:29:47.831Z,20.38
2023-03-18T19:32:21.204Z,19.80
2023-03-18T19:34:51.723Z,19.65
2023-03-18T19:37:24.058Z,18.25
2023-03-18T19:39:51.946Z,17.77
2023-03-18T19:42:20.120Z,17.77
2023-03-18T19:44:48.739Z,15.85
2023-03-18T19:47:29.783Z,16.10
2023-03-18T19:49:57.159Z,16.83
2023-03-18T19:52:27.739Z,19.13
2023-03-18T19:54:55.873Z,19.45
2023-03-18T19:57:31.888Z,17.83
2023-03-18T20:00:01.326Z,20.08
2023-03-18T20:02:33.998Z,18.67
2023-03-18T20:05:15.065Z,24.30
2023-03-18T20:07:42.754Z,24.10
2023-03-18T20:10:14.746Z,22.42
2023-03-18T20:12:49.323Z,22.00
2023-03-18T20:15:25.611Z,20.83
2023-03-18T20:17:54.085Z,20.58
2023-03-18T20:20:44.640Z,22.10
2023-03-18T20:23:22.374Z,23.02
2023-03-18T20:25:51.831Z,23.20
2023-03-18T20:28:23.767Z,22.15
2023-03-18T20:30:54.104Z,21.85
2023-03-18T20:33:23.002Z,21.85
2023-03-18T20:35:53.932Z,20.63
2023-03-18T20:38:37.526Z,21.95
2023-03-18T20:41:07.232Z,21.13
2023-03-18T20:43:35.031Z,23.92
2023-03-18T20:46:02.584Z,23.30
2023-03-18T20:48:30.464Z,22.90
2023-03-18T20:50:58.433Z,22.80
2023-03-18T20:53:29.036Z,20.10
2023-03-18T20:55:56.869Z,22.10
2023-03-18T20:58:28.243Z,21.55
2023-03-18T21:00:56.114Z,22.50
2023-03-18T21:03:33.572Z,22.70
2023-03-18T21:06:03.979Z,26.58
2023-03-18T21:08:32.105Z,26.45
2023-03-18T21:11:02.244Z,23.08
2023-03-18T21:13:39.020Z,22.80
2023-03-18T21:16:13.942Z,21.92
2023-03-18T21:18:47.759Z,20.60
2023-03-18T21:21:24.896Z,21.35
2023-03-18T21:23:54.514Z,21.65
2023-03-18T21:26:23.834Z,20.55
2023-03-18T21:28:52.603Z,19.92
2023-03-18T21:31:26.080Z,18.67
2023-03-18T21:33:55.330Z,19.10
2023-03-18T21:36:22.617Z,22.15
2023-03-18T21:38:50.969Z,22.30
2023-03-18T21:41:36.806Z,21.98
2023-03-18T21:44:04.685Z,20.58
2023-03-18T21:46:32.220Z,20.85
2023-03-18T21:49:00.126Z,20.27
2023-03-18T21:51:39.624Z,19.88
2023-03-18T21:54:18.270Z,21.95
2023-03-18T21:56:45.601Z,20.42
2023-03-18T21:59:13.297Z,19.80
2023-03-18T22:01:40.613Z,20.27
2023-03-18T22:04:08.558Z,20.50
2023-03-18T22:06:35.851Z,21.38
2023-03-18T22:09:03.732Z,22.45
2023-03-18T22:11:31.062Z,22.15
2023-03-18T22:13:58.693Z,21.23
2023-03-18T22:16:26.125Z,21.13
2023-03-18T22:18:53.787Z,20.33
2023-03-18T22:21:26.298Z,20.42
2023-03-18T22:23:54.447Z,17.95
2023-03-18T22:26:22.231Z,17.63
2023-03-18T22:28:50.772Z,17.67
2023-03-18T22:31:27.086Z,16.17
2023-03-18T22:33:55.355Z,15.75
2023-03-18T22:36:23.892Z,15.95
2023-03-18T22:38:51.578Z,15.18
2023-03-18T22:41:31.234Z,16.05
2023-03-18T22:44:00.220Z,17.08
2023-03-18T22:46:28.592Z,16.08
2023-03-18T22:48:56.958Z,16.25
2023-03-18T22:51:29.729Z,17.80
2023-03-18T22:53:57.547Z,18.15
2023-03-18T22:56:24.908Z,17.08
2023-03-18T22:58:52.666Z,17.35
2023-03-18T23:01:26.717Z,17.42
2023-03-18T23:03:54.364Z,16.92
2023-03-18T23:06:27.158Z,14.90
2023-03-18T23:08:54.858Z,15.27
2023-03-18T23:11:22.100Z,15.57
2023-03-18T23:13:52.210Z,16.48
2023-03-18T23:16:23.754Z,16.40
2023-03-18T23:18:52.297Z,17.52
2023-03-18T23:21:23.687Z,16.02
2023-03-18T23:23:52.554Z,16.50
2023-03-18T23:26:20.570Z,15.77
2023-03-18T23:28:49.141Z,16.13
2023-03-18T23:31:16.991Z,14.60
2023-03-18T23:33:45.178Z,15.07
2023-03-18T23:36:13.119Z,14.35
2023-03-18T23:38:41.125Z,13.73
2023-03-18T23:41:08.573Z,13.73
2023-03-18T23:43:36.863Z,13.55
2023-03-18T23:46:04.372Z,11.93
2023-03-18T23:48:32.021Z,12.55
2023-03-18T23:50:59.359Z,13.35
2023-03-18T23:53:27.303Z,13.85
2023-03-18T23:55:54.541Z,14.60
2023-03-18T23:58:22.326Z,12.13
